Time;durP1;ratioP1;P1;durP2;ratioP2;P2;SDS_P1;SDS_P2;PMS_P1;PMS_P2;Temp;Humidity;BMP_temperature;BMP_pressure;BME280_temperature;BME280_humidity;BME280_pressure;Samples;Min_cycle;Max_cycle;Signal;HPM_P1;HPM_P2
2022/08/09 00:02:19;;;;;;;2.17;2.00;;;18.50;94.60;;;;;;5091543;28;20487;-70
2022/08/09 00:04:48;;;;;;;2.37;1.70;;;18.50;94.90;;;;;;5091635;28;20455;-70
2022/08/09 00:07:15;;;;;;;2.50;2.10;;;18.40;95.10;;;;;;5091513;28;20459;-70
2022/08/09 00:09:42;;;;;;;2.63;2.07;;;18.60;94.60;;;;;;5095366;28;20454;-70
2022/08/09 00:12:10;;;;;;;3.13;2.17;;;18.40;94.50;;;;;;5095401;28;20463;-70
2022/08/09 00:14:37;;;;;;;2.80;2.10;;;18.30;95.00;;;;;;5095372;28;20459;-70
2022/08/09 00:17:04;;;;;;;3.00;2.07;;;18.30;95.60;;;;;;5095142;28;20447;-71
2022/08/09 00:19:32;;;;;;;2.07;1.73;;;18.30;95.20;;;;;;5094971;28;20448;-70
2022/08/09 00:22:01;;;;;;;2.33;2.00;;;18.40;95.70;;;;;;5094680;28;20479;-70
2022/08/09 00:24:30;;;;;;;3.80;2.10;;;18.40;95.80;;;;;;5094831;28;20829;-70
2022/08/09 00:26:58;;;;;;;2.37;1.80;;;18.20;96.50;;;;;;5094626;28;20456;-71
2022/08/09 00:29:26;;;;;;;2.50;2.03;;;18.00;97.20;;;;;;5094567;28;20454;-71
2022/08/09 00:31:53;;;;;;;2.07;1.70;;;17.90;97.40;;;;;;5094555;28;20506;-72
2022/08/09 00:34:20;;;;;;;2.13;2.00;;;18.10;96.90;;;;;;5094538;28;20463;-72
2022/08/09 00:36:49;;;;;;;3.20;2.00;;;17.90;97.50;;;;;;5094332;28;20452;-71
2022/08/09 00:39:18;;;;;;;3.23;2.10;;;17.90;97.30;;;;;;5094497;28;20517;-72
2022/08/09 00:41:46;;;;;;;2.30;1.80;;;18.00;97.20;;;;;;5094170;28;20475;-70
2022/08/09 00:44:13;;;;;;;2.33;1.70;;;17.80;97.90;;;;;;5094642;28;20825;-71
2022/08/09 00:46:42;;;;;;;3.00;1.90;;;17.90;97.60;;;;;;5094195;28;20452;-71
2022/08/09 00:49:09;;;;;;;2.13;1.83;;;17.80;98.00;;;;;;5094298;28;20459;-72
2022/08/09 00:51:36;;;;;;;2.83;1.90;;;17.60;98.00;;;;;;5094249;28;20463;-71
2022/08/09 00:54:04;;;;;;;2.80;1.80;;;17.60;98.00;;;;;;5094101;28;20475;-71
2022/08/09 00:56:32;;;;;;;2.83;1.80;;;17.60;98.00;;;;;;5094187;28;20953;-70
2022/08/09 00:59:01;;;;;;;4.27;2.40;;;17.70;98.00;;;;;;5094132;28;20871;-71
2022/08/09 01:01:35;;;;;;;2.60;1.97;;;17.90;97.80;;;;;;5093923;28;20440;-70
2022/08/09 01:04:08;;;;;;;2.40;2.00;;;17.70;98.00;;;;;;5094157;28;20455;-70
2022/08/09 01:06:43;;;;;;;2.50;1.87;;;17.60;98.00;;;;;;5094117;28;20459;-70
2022/08/09 01:09:20;;;;;;;2.50;1.77;;;17.50;98.00;;;;;;5094033;28;20444;-70
2022/08/09 01:11:55;;;;;;;4.03;2.00;;;17.50;98.00;;;;;;5093748;28;20455;-70
2022/08/09 01:14:29;;;;;;;2.37;1.63;;;17.40;98.00;;;;;;5094181;28;20554;-70
2022/08/09 01:17:02;;;;;;;1.87;1.50;;;17.30;98.00;;;;;;5094187;28;20455;-70
2022/08/09 01:19:44;;;;;;;2.70;1.90;;;17.30;98.00;;;;;;5093402;28;20456;-71
2022/08/09 01:22:30;;;;;;;3.10;2.13;;;17.20;98.00;;;;;;5093716;28;20523;-71
2022/08/09 01:25:10;;;;;;;2.53;1.73;;;17.10;98.00;;;;;;5093624;28;20460;-70
2022/08/09 01:27:41;;;;;;;2.47;2.07;;;17.20;98.00;;;;;;5093638;28;20482;-70
2022/08/09 01:30:10;;;;;;;2.50;1.83;;;17.20;98.00;;;;;;5093356;28;20459;-70
2022/08/09 01:32:40;;;;;;;2.40;1.90;;;17.30;98.00;;;;;;5093392;28;20443;-70
2022/08/09 01:35:12;;;;;;;3.07;2.13;;;17.20;98.00;;;;;;5093360;28;20455;-71
2022/08/09 01:37:42;;;;;;;2.20;1.80;;;17.20;98.00;;;;;;5093340;28;20922;-71
2022/08/09 01:40:11;;;;;;;3.80;2.20;;;17.00;98.00;;;;;;5093305;28;20455;-71
2022/08/09 01:42:42;;;;;;;3.27;1.97;;;16.90;98.00;;;;;;5092573;28;20480;-70
2022/08/09 01:45:11;;;;;;;2.50;2.03;;;17.00;98.00;;;;;;5093234;28;20459;-70
2022/08/09 01:47:40;;;;;;;2.50;1.80;;;16.90;98.00;;;;;;5093066;28;20509;-70
2022/08/09 01:50:10;;;;;;;2.10;1.80;;;16.80;98.00;;;;;;5093073;28;20460;-70
2022/08/09 01:52:39;;;;;;;3.40;2.10;;;16.80;98.00;;;;;;5075383;28;20459;-71
2022/08/09 01:55:07;;;;;;;3.87;2.03;;;16.80;98.00;;;;;;5075092;28;20464;-70
2022/08/09 01:57:38;;;;;;;2.37;1.90;;;16.80;98.00;;;;;;5092934;28;20467;-70
2022/08/09 02:00:09;;;;;;;2.77;1.67;;;16.80;98.00;;;;;;5092988;28;20456;-70
2022/08/09 02:02:40;;;;;;;2.50;1.90;;;16.60;98.00;;;;;;5092856;28;20484;-71
2022/08/09 02:05:11;;;;;;;2.47;1.87;;;16.50;98.00;;;;;;5093206;28;20459;-71
2022/08/09 02:07:44;;;;;;;2.37;1.87;;;16.40;98.00;;;;;;5092915;28;20451;-70
2022/08/09 02:10:16;;;;;;;2.60;1.90;;;16.30;98.00;;;;;;5092984;28;20446;-70
2022/08/09 02:12:45;;;;;;;2.83;2.10;;;16.30;98.00;;;;;;5092976;28;20479;-70
2022/08/09 02:15:16;;;;;;;3.00;1.80;;;16.20;98.00;;;;;;5092840;28;20454;-71
2022/08/09 02:17:45;;;;;;;4.30;2.20;;;16.40;98.00;;;;;;5092873;28;20452;-70
2022/08/09 02:20:12;;;;;;;2.00;1.60;;;16.40;98.00;;;;;;5092709;28;20462;-71
2022/08/09 02:22:42;;;;;;;2.20;1.63;;;16.40;98.00;;;;;;5092747;28;20507;-70
2022/08/09 02:25:17;;;;;;;2.13;1.80;;;16.50;98.00;;;;;;5092390;28;20455;-69
2022/08/09 02:27:50;;;;;;;2.10;1.70;;;16.60;98.00;;;;;;5092592;28;20459;-70
2022/08/09 02:30:19;;;;;;;1.87;1.67;;;16.50;98.00;;;;;;5091690;28;21013;-70
2022/08/09 02:32:48;;;;;;;2.27;1.80;;;16.60;98.00;;;;;;5092307;28;20486;-71
2022/08/09 02:35:23;;;;;;;2.33;1.73;;;16.60;98.00;;;;;;5092515;28;20882;-70
2022/08/09 02:37:56;;;;;;;2.83;1.90;;;16.60;98.00;;;;;;5092126;28;20451;-70
2022/08/09 02:40:24;;;;;;;2.63;1.93;;;16.50;98.00;;;;;;5092200;28;20463;-71
2022/08/09 02:42:53;;;;;;;2.00;1.70;;;16.40;98.00;;;;;;5092091;28;20947;-70
2022/08/09 02:45:27;;;;;;;2.10;1.43;;;16.40;98.00;;;;;;5092217;28;20456;-71
2022/08/09 02:47:58;;;;;;;3.80;1.80;;;16.40;98.00;;;;;;5092115;28;20960;-71
2022/08/09 02:50:29;;;;;;;2.57;1.80;;;16.30;98.00;;;;;;5092337;28;20452;-71
2022/08/09 02:53:01;;;;;;;3.30;2.00;;;16.10;98.00;;;;;;5091998;28;20448;-71
2022/08/09 02:55:31;;;;;;;2.63;2.23;;;16.20;98.00;;;;;;5091955;28;20468;-71
2022/08/09 02:58:01;;;;;;;2.97;1.87;;;16.10;98.00;;;;;;5092038;28;20815;-72
2022/08/09 03:00:31;;;;;;;2.40;1.60;;;16.10;98.00;;;;;;5092085;28;20448;-72
2022/08/09 03:03:00;;;;;;;1.87;1.73;;;15.90;98.00;;;;;;5091802;28;20506;-72
2022/08/09 03:05:28;;;;;;;2.87;2.10;;;15.90;98.00;;;;;;5091446;28;20456;-70
2022/08/09 03:07:56;;;;;;;3.30;2.10;;;15.70;98.00;;;;;;5091146;28;20456;-70
2022/08/09 03:10:25;;;;;;;2.90;2.10;;;15.60;98.00;;;;;;5091229;28;20461;-70
2022/08/09 03:12:54;;;;;;;2.93;2.27;;;15.60;98.00;;;;;;5091149;28;20459;-71
2022/08/09 03:15:23;;;;;;;2.97;2.03;;;15.70;98.00;;;;;;5091362;28;20452;-72
2022/08/09 03:17:52;;;;;;;2.77;1.87;;;15.80;98.00;;;;;;5091256;28;20886;-72
2022/08/09 03:20:21;;;;;;;2.80;2.10;;;16.00;98.00;;;;;;5091434;28;20799;-71
2022/08/09 03:22:49;;;;;;;2.17;1.63;;;16.00;98.00;;;;;;5091276;28;20480;-72
2022/08/09 03:25:16;;;;;;;2.40;1.90;;;15.90;98.00;;;;;;5091500;28;20482;-71
2022/08/09 03:27:49;;;;;;;2.80;2.10;;;15.80;98.00;;;;;;5091830;28;20456;-72
2022/08/09 03:30:19;;;;;;;2.57;1.83;;;15.80;98.00;;;;;;5091864;28;20447;-71
2022/08/09 03:32:46;;;;;;;2.13;1.80;;;15.80;98.00;;;;;;5091490;28;20836;-71
2022/08/09 03:35:15;;;;;;;2.30;2.07;;;15.60;98.00;;;;;;5091854;28;20452;-71
2022/08/09 03:37:42;;;;;;;2.23;1.67;;;15.60;98.00;;;;;;5091617;28;20790;-71
2022/08/09 03:40:11;;;;;;;2.37;1.60;;;15.60;98.00;;;;;;5091844;28;20459;-72
2022/08/09 03:42:38;;;;;;;2.53;1.83;;;15.50;98.00;;;;;;5093888;28;20844;-71
2022/08/09 03:45:07;;;;;;;3.00;1.87;;;15.40;98.00;;;;;;5095658;28;20447;-72
2022/08/09 03:47:34;;;;;;;2.50;1.80;;;15.40;98.00;;;;;;5095673;28;20504;-72
2022/08/09 03:50:03;;;;;;;2.57;1.63;;;15.30;98.00;;;;;;5095435;28;20459;-71
2022/08/09 03:52:33;;;;;;;3.60;2.13;;;15.40;98.00;;;;;;5095385;28;20463;-71
2022/08/09 03:55:04;;;;;;;3.83;2.10;;;15.40;98.00;;;;;;5095049;28;20456;-71
2022/08/09 03:57:31;;;;;;;3.90;2.20;;;15.60;98.00;;;;;;5095468;28;20536;-71
2022/08/09 03:59:58;;;;;;;2.40;1.90;;;15.80;98.00;;;;;;5095397;28;20809;-71
2022/08/09 04:02:27;;;;;;;2.67;2.03;;;15.60;98.00;;;;;;5095263;28;20452;-72
2022/08/09 04:04:56;;;;;;;2.90;1.90;;;15.50;98.00;;;;;;5077759;28;20443;-71
2022/08/09 04:07:28;;;;;;;3.20;1.87;;;15.40;98.00;;;;;;5095305;28;20478;-71
2022/08/09 04:09:56;;;;;;;3.20;2.00;;;15.40;98.00;;;;;;5094818;28;20513;-70
2022/08/09 04:12:45;;;;;;;2.60;1.93;;;15.30;98.00;;;;;;5095254;28;20456;-70
2022/08/09 04:15:14;;;;;;;5.67;2.40;;;15.40;98.00;;;;;;5095390;28;20829;-70
2022/08/09 04:17:43;;;;;;;2.73;1.90;;;15.40;98.00;;;;;;5095165;28;20452;-71
2022/08/09 04:20:11;;;;;;;2.50;2.03;;;15.40;98.00;;;;;;5095238;28;20466;-70
2022/08/09 04:22:39;;;;;;;2.60;1.97;;;15.30;98.00;;;;;;5094836;28;20479;-70
2022/08/09 04:25:09;;;;;;;2.97;2.13;;;15.30;98.00;;;;;;5094886;28;20452;-70
2022/08/09 04:27:40;;;;;;;2.43;2.20;;;15.30;98.00;;;;;;5094652;28;20459;-71
2022/08/09 04:30:09;;;;;;;3.50;2.27;;;15.20;98.00;;;;;;5094555;28;20460;-71
2022/08/09 04:32:36;;;;;;;3.60;2.10;;;15.30;98.00;;;;;;5094638;28;20483;-70
2022/08/09 04:35:04;;;;;;;2.07;1.60;;;15.40;98.00;;;;;;5094468;28;20460;-70
2022/08/09 04:37:31;;;;;;;2.33;1.90;;;15.40;98.00;;;;;;5094339;28;20451;-70
2022/08/09 04:39:58;;;;;;;3.93;2.70;;;15.40;98.00;;;;;;5094435;28;20448;-70
2022/08/09 04:42:28;;;;;;;2.87;1.90;;;15.30;98.00;;;;;;5094236;28;20452;-70
2022/08/09 04:44:55;;;;;;;6.40;3.00;;;15.20;98.00;;;;;;5094448;28;20456;-71
2022/08/09 04:47:22;;;;;;;1.97;1.60;;;15.30;98.00;;;;;;5094460;28;20500;-70
2022/08/09 04:49:50;;;;;;;2.80;1.80;;;15.30;98.00;;;;;;5094481;28;20864;-70
2022/08/09 04:52:17;;;;;;;2.90;2.00;;;15.40;98.00;;;;;;5094268;28;20459;-70
2022/08/09 04:54:45;;;;;;;2.43;1.90;;;15.50;98.00;;;;;;5093531;28;20815;-70
2022/08/09 04:57:13;;;;;;;2.70;1.73;;;15.50;98.00;;;;;;5094128;28;20926;-69
2022/08/09 04:59:41;;;;;;;1.80;1.60;;;15.70;98.00;;;;;;5094109;28;20460;-70
2022/08/09 05:02:08;;;;;;;3.23;2.30;;;15.60;98.00;;;;;;5094052;28;20452;-71
2022/08/09 05:04:37;;;;;;;3.20;2.33;;;15.60;98.00;;;;;;5094249;28;20519;-70
2022/08/09 05:07:04;;;;;;;3.67;2.17;;;15.60;98.00;;;;;;5093951;28;20464;-70
2022/08/09 05:09:31;;;;;;;2.00;1.70;;;15.50;98.00;;;;;;5094041;28;20459;-71
2022/08/09 05:11:59;;;;;;;3.10;2.27;;;15.60;98.00;;;;;;5093961;28;20452;-71
2022/08/09 05:14:30;;;;;;;3.10;2.10;;;15.60;98.00;;;;;;5094140;28;20464;-70
2022/08/09 05:16:58;;;;;;;5.53;2.13;;;15.70;98.00;;;;;;5093892;28;20460;-70
2022/08/09 05:19:28;;;;;;;3.27;2.23;;;15.70;98.00;;;;;;5093953;28;20782;-70
2022/08/09 05:21:56;;;;;;;3.37;2.30;;;15.80;98.00;;;;;;5093635;28;20530;-70
2022/08/09 05:24:23;;;;;;;3.00;2.20;;;15.60;98.00;;;;;;5092799;28;20862;-70
2022/08/09 05:26:51;;;;;;;2.50;1.97;;;15.70;98.00;;;;;;5093496;28;20456;-70
2022/08/09 05:29:19;;;;;;;2.70;2.07;;;15.70;98.00;;;;;;5093666;28;20456;-70
2022/08/09 05:31:46;;;;;;;2.70;2.10;;;15.70;98.00;;;;;;5093167;28;20482;-70
2022/08/09 05:34:15;;;;;;;2.60;2.13;;;15.70;98.00;;;;;;5093535;28;20865;-70
2022/08/09 05:36:43;;;;;;;2.70;1.90;;;15.90;98.00;;;;;;5093202;28;20495;-70
2022/08/09 05:39:10;;;;;;;2.83;2.13;;;15.90;98.00;;;;;;5093364;28;20509;-70
2022/08/09 05:41:37;;;;;;;3.40;2.23;;;16.10;98.00;;;;;;5093234;28;20456;-70
2022/08/09 05:44:04;;;;;;;2.73;2.27;;;16.20;98.00;;;;;;5093150;28;20840;-70
2022/08/09 05:46:31;;;;;;;2.53;2.20;;;16.30;98.00;;;;;;5093350;28;20817;-70
2022/08/09 05:48:59;;;;;;;4.00;2.20;;;16.50;98.00;;;;;;5093083;28;20459;-70
2022/08/09 05:51:27;;;;;;;4.47;2.47;;;16.60;98.00;;;;;;5093140;28;20451;-70
2022/08/09 05:53:54;;;;;;;3.83;2.27;;;16.80;98.00;;;;;;5093089;28;20475;-70
2022/08/09 05:56:23;;;;;;;3.30;2.43;;;16.80;98.00;;;;;;5093097;28;21083;-70
2022/08/09 05:58:50;;;;;;;3.73;2.20;;;16.90;98.00;;;;;;5093135;28;20953;-70
2022/08/09 06:01:20;;;;;;;3.87;2.23;;;17.00;98.00;;;;;;5093137;28;20456;-70
2022/08/09 06:03:47;;;;;;;3.20;2.30;;;17.20;98.00;;;;;;5092876;28;20541;-71
2022/08/09 06:06:15;;;;;;;7.80;2.50;;;17.40;98.00;;;;;;5092091;28;20798;-70
2022/08/09 06:08:43;;;;;;;2.87;2.20;;;17.50;98.00;;;;;;5092959;28;20550;-70
2022/08/09 06:11:10;;;;;;;4.90;2.60;;;17.60;98.00;;;;;;5092713;28;20450;-68
2022/08/09 06:13:38;;;;;;;3.47;2.20;;;17.80;98.00;;;;;;5093006;28;20531;-68
2022/08/09 06:16:05;;;;;;;4.43;2.40;;;17.90;98.00;;;;;;5092649;28;20508;-69
2022/08/09 06:18:33;;;;;;;3.63;2.43;;;18.00;98.00;;;;;;5092988;28;20463;-69
2022/08/09 06:21:01;;;;;;;3.50;2.37;;;18.00;98.00;;;;;;5092448;28;20814;-70
2022/08/09 06:23:31;;;;;;;3.40;2.37;;;18.00;98.00;;;;;;5092674;28;20487;-68
2022/08/09 06:25:59;;;;;;;3.93;2.90;;;18.20;98.00;;;;;;5092302;28;20467;-69
2022/08/09 06:28:26;;;;;;;4.30;2.80;;;18.10;98.00;;;;;;5092329;28;21127;-68
2022/08/09 06:30:54;;;;;;;4.57;2.47;;;18.20;98.00;;;;;;5092242;28;20451;-70
2022/08/09 06:33:22;;;;;;;2.53;2.00;;;18.40;98.00;;;;;;5092466;28;20452;-68
2022/08/09 06:35:49;;;;;;;10.10;3.57;;;18.50;98.00;;;;;;5074442;28;20545;-70
2022/08/09 06:38:16;;;;;;;3.60;2.33;;;18.60;98.00;;;;;;5092114;28;20448;-70
2022/08/09 06:40:51;;;;;;;3.77;2.53;;;18.70;98.00;;;;;;5092296;28;20447;-70
2022/08/09 06:43:20;;;;;;;4.37;2.57;;;18.90;98.00;;;;;;5092017;28;20465;-69
2022/08/09 06:45:47;;;;;;;4.83;2.67;;;19.00;98.00;;;;;;5092191;28;20456;-70
2022/08/09 06:48:14;;;;;;;4.10;2.90;;;19.20;98.00;;;;;;5092100;28;20938;-69
2022/08/09 06:50:42;;;;;;;4.53;2.60;;;19.20;98.00;;;;;;5074456;28;20962;-70
2022/08/09 06:53:09;;;;;;;4.40;2.83;;;19.30;98.00;;;;;;5091947;28;20458;-69
2022/08/09 06:55:36;;;;;;;2.93;2.10;;;19.40;98.00;;;;;;5092010;28;20467;-70
2022/08/09 06:58:04;;;;;;;3.83;2.53;;;19.50;98.00;;;;;;5092108;28;20460;-70
2022/08/09 07:00:34;;;;;;;2.90;2.20;;;19.80;98.00;;;;;;5074234;28;20517;-69
2022/08/09 07:03:01;;;;;;;3.97;2.27;;;20.00;97.10;;;;;;5091723;28;20456;-69
2022/08/09 07:05:29;;;;;;;3.60;2.67;;;20.10;96.00;;;;;;5092008;28;20494;-69
2022/08/09 07:07:56;;;;;;;4.40;2.87;;;20.30;96.10;;;;;;5092014;28;20491;-70
2022/08/09 07:10:23;;;;;;;4.20;2.63;;;20.40;96.20;;;;;;5092078;28;20455;-70
2022/08/09 07:12:51;;;;;;;4.30;2.43;;;20.60;96.20;;;;;;5069888;28;20459;-69
2022/08/09 07:15:18;;;;;;;4.13;2.80;;;20.80;95.00;;;;;;5068537;28;20455;-70
2022/08/09 07:17:46;;;;;;;5.27;2.53;;;20.90;94.50;;;;;;5072935;28;20457;-69
2022/08/09 07:20:14;;;;;;;3.13;2.60;;;21.00;94.70;;;;;;5076136;28;20457;-72
2022/08/09 07:22:41;;;;;;;3.97;2.57;;;21.20;93.60;;;;;;5075904;28;20460;-68
2022/08/09 07:25:10;;;;;;;3.40;2.47;;;21.20;93.30;;;;;;5075688;28;20516;-69
2022/08/09 07:27:38;;;;;;;2.80;1.97;;;21.50;91.70;;;;;;5075725;28;20460;-70
2022/08/09 07:30:06;;;;;;;3.10;2.23;;;21.60;91.60;;;;;;5075791;28;20486;-70
2022/08/09 07:32:34;;;;;;;3.00;2.00;;;21.90;90.70;;;;;;5075376;28;20448;-70
2022/08/09 07:35:05;;;;;;;3.80;2.60;;;22.10;89.90;;;;;;5075568;28;20832;-71
2022/08/09 07:37:32;;;;;;;3.17;2.30;;;22.30;89.10;;;;;;5075372;28;20453;-71
2022/08/09 07:39:59;;;;;;;3.13;2.27;;;22.50;88.30;;;;;;5075385;28;20817;-70
2022/08/09 07:42:26;;;;;;;5.00;3.30;;;22.70;88.30;;;;;;5075432;28;20817;-70
2022/08/09 07:44:53;;;;;;;3.43;2.57;;;22.90;87.70;;;;;;5075147;28;20990;-70
2022/08/09 07:47:21;;;;;;;2.90;2.60;;;23.00;87.10;;;;;;5075253;28;20461;-70
2022/08/09 07:49:49;;;;;;;4.07;2.53;;;23.10;86.70;;;;;;5075179;28;20506;-69
2022/08/09 07:52:17;;;;;;;6.57;2.60;;;23.20;86.70;;;;;;5074978;28;20461;-71
2022/08/09 07:54:44;;;;;;;3.50;2.33;;;23.40;85.90;;;;;;5074957;28;20456;-71
2022/08/09 07:57:12;;;;;;;3.90;2.63;;;23.40;86.10;;;;;;5075143;28;20452;-70
2022/08/09 07:59:39;;;;;;;4.77;2.90;;;23.50;85.90;;;;;;5075161;28;20793;-69
2022/08/09 08:02:06;;;;;;;5.23;2.93;;;23.70;85.60;;;;;;5074993;28;20946;-70
2022/08/09 08:04:35;;;;;;;3.60;2.50;;;23.80;85.10;;;;;;5074920;28;20487;-71
2022/08/09 08:07:03;;;;;;;4.20;2.67;;;24.10;84.90;;;;;;5074705;28;20476;-70
2022/08/09 08:09:31;;;;;;;3.60;2.60;;;24.20;83.90;;;;;;5074936;28;20453;-70
2022/08/09 08:11:59;;;;;;;2.70;2.40;;;24.30;83.60;;;;;;5074941;28;20459;-71
2022/08/09 08:14:26;;;;;;;3.10;2.40;;;24.40;83.10;;;;;;5075012;28;20460;-69
2022/08/09 08:17:05;;;;;;;3.00;2.40;;;24.60;82.90;;;;;;5074939;28;20452;-70
2022/08/09 08:19:33;;;;;;;4.07;2.67;;;24.80;82.90;;;;;;5059032;28;20906;-69
2022/08/09 08:22:01;;;;;;;4.20;2.73;;;24.90;81.90;;;;;;5074608;28;20946;-69
2022/08/09 08:24:31;;;;;;;3.23;2.43;;;25.00;81.70;;;;;;5074587;28;20488;-69
2022/08/09 08:26:59;;;;;;;3.77;2.83;;;25.20;81.50;;;;;;5074465;28;20914;-69
2022/08/09 08:29:34;;;;;;;4.47;2.97;;;25.30;81.40;;;;;;5073460;28;20457;-67
2022/08/09 08:32:02;;;;;;;3.70;2.60;;;25.40;80.10;;;;;;5074220;28;20479;-69
2022/08/09 08:34:29;;;;;;;3.57;2.40;;;25.50;80.10;;;;;;5056954;28;20480;-68
2022/08/09 08:36:56;;;;;;;3.10;2.47;;;25.50;80.10;;;;;;5074259;28;20464;-68
2022/08/09 08:39:23;;;;;;;3.73;2.80;;;25.60;80.40;;;;;;5074482;28;20453;-69
2022/08/09 08:41:52;;;;;;;2.90;2.40;;;25.80;79.80;;;;;;5074330;28;20455;-68
2022/08/09 08:44:22;;;;;;;4.07;2.70;;;25.90;79.30;;;;;;5074265;28;20516;-69
2022/08/09 08:46:52;;;;;;;3.90;2.60;;;26.10;79.00;;;;;;5074144;28;20456;-65
2022/08/09 08:49:20;;;;;;;4.70;2.80;;;26.20;78.50;;;;;;5080849;28;20943;-65
2022/08/09 08:51:48;;;;;;;3.27;2.70;;;26.30;77.60;;;;;;5075077;28;20484;-64
2022/08/09 08:54:53;;;;;;;5.37;2.70;;;26.40;77.60;;;;;;5090757;22;20573;-88
2022/08/09 08:57:41;;;;;;;4.00;2.70;;;26.50;77.40;;;;;;5052845;28;21138;-89
2022/08/09 09:00:13;;;;;;;3.57;2.93;;;26.60;76.80;;;;;;5052779;28;20481;-90
2022/08/09 09:02:41;;;;;;;3.43;2.50;;;26.80;76.60;;;;;;5053265;28;20454;-89
2022/08/09 09:05:12;;;;;;;3.97;2.77;;;26.90;76.70;;;;;;5052931;28;20485;-87
2022/08/09 09:07:43;;;;;;;2.90;2.50;;;27.10;76.00;;;;;;5052572;28;20520;-87
2022/08/09 09:10:11;;;;;;;3.73;2.90;;;27.20;75.40;;;;;;5052716;28;20995;-87
2022/08/09 09:12:42;;;;;;;3.77;2.73;;;27.40;74.90;;;;;;5067712;28;20954;-88
2022/08/09 09:15:30;;;;;;;5.57;2.47;;;27.50;73.60;;;;;;5073023;28;20568;-89
2022/08/09 09:20:56;;;;;;;3.50;2.70;;;27.70;73.00;;;;;;5031671;28;20568;-88
2022/08/09 09:23:41;;;;;;;4.13;2.50;;;27.70;71.70;;;;;;5062235;28;20464;-88
2022/08/09 09:26:08;;;;;;;2.93;2.30;;;27.90;71.90;;;;;;5063659;28;20571;-88
2022/08/09 09:28:36;;;;;;;3.90;2.90;;;28.00;70.80;;;;;;5069128;28;20480;-89
2022/08/09 09:31:06;;;;;;;3.20;2.50;;;28.10;70.50;;;;;;5069518;28;20529;-89
2022/08/09 09:33:37;;;;;;;2.83;2.47;;;28.30;70.90;;;;;;5069532;28;20942;-87
2022/08/09 09:36:07;;;;;;;2.80;2.30;;;28.50;69.30;;;;;;5072206;28;21515;-89
2022/08/09 09:38:42;;;;;;;3.70;2.60;;;28.50;69.10;;;;;;5073439;28;20487;-89
2022/08/09 09:41:09;;;;;;;3.90;2.63;;;28.50;68.90;;;;;;5069153;28;20507;-87
2022/08/09 09:43:37;;;;;;;2.90;2.33;;;28.60;69.30;;;;;;5067985;28;20614;-88
2022/08/09 09:46:06;;;;;;;3.30;2.70;;;28.70;69.30;;;;;;5068025;28;20493;-89
2022/08/09 09:48:33;;;;;;;3.40;2.87;;;28.80;68.90;;;;;;5067672;28;20457;-89
2022/08/09 09:51:01;;;;;;;3.33;2.57;;;28.90;68.00;;;;;;5066190;28;20554;-89
2022/08/09 09:53:28;;;;;;;3.10;2.50;;;28.80;67.80;;;;;;5068224;28;20461;-88
2022/08/09 09:56:00;;;;;;;3.40;2.77;;;28.80;68.60;;;;;;5069037;28;20457;-90
2022/08/09 09:58:44;;;;;;;3.30;2.40;;;29.00;68.00;;;;;;5067057;28;20542;-90
2022/08/09 10:01:19;;;;;;;4.20;2.83;;;29.00;67.20;;;;;;5068835;28;20562;-91
2022/08/09 10:03:48;;;;;;;2.90;2.60;;;29.20;68.10;;;;;;5068737;28;20456;-88
2022/08/09 10:06:16;;;;;;;4.23;2.80;;;29.40;66.80;;;;;;5068623;28;20948;-89
2022/08/09 10:08:45;;;;;;;3.63;2.40;;;29.50;66.80;;;;;;5067890;28;21021;-88
2022/08/09 10:11:20;;;;;;;3.07;2.37;;;29.70;64.70;;;;;;5068870;28;20465;-88
2022/08/09 10:13:48;;;;;;;3.37;2.50;;;29.80;64.30;;;;;;5068808;28;20480;-90
2022/08/09 10:16:16;;;;;;;3.57;2.40;;;29.80;63.50;;;;;;5068469;28;20460;-90
2022/08/09 10:18:52;;;;;;;3.50;2.20;;;29.90;63.60;;;;;;5067816;28;20476;-90
2022/08/09 10:21:19;;;;;;;2.70;2.10;;;30.00;62.20;;;;;;5069024;28;20477;-89
2022/08/09 10:23:48;;;;;;;3.17;2.50;;;30.10;62.30;;;;;;5068662;28;20460;-90
2022/08/09 10:26:15;;;;;;;3.50;2.50;;;30.10;62.20;;;;;;5068596;28;20575;-89
2022/08/09 10:28:44;;;;;;;2.20;1.87;;;30.20;62.80;;;;;;5067722;28;20526;-90
2022/08/09 10:31:13;;;;;;;2.80;1.90;;;30.20;62.40;;;;;;5068693;28;20530;-88
2022/08/09 10:33:41;;;;;;;5.53;2.63;;;30.30;62.50;;;;;;5068566;28;20469;-86
2022/08/09 10:36:11;;;;;;;3.10;2.20;;;30.50;61.70;;;;;;5068036;28;20938;-87
2022/08/09 10:38:42;;;;;;;3.60;2.53;;;30.50;61.10;;;;;;5067258;28;20467;-87
2022/08/09 10:41:09;;;;;;;2.90;2.30;;;30.60;61.10;;;;;;5068937;28;20813;-87
2022/08/09 10:43:37;;;;;;;2.87;2.10;;;30.70;61.20;;;;;;5068287;28;20471;-87
2022/08/09 10:46:24;;;;;;;2.57;2.10;;;30.70;60.30;;;;;;5068249;28;20487;-87
2022/08/09 10:48:59;;;;;;;3.70;2.53;;;30.80;60.10;;;;;;5060620;28;20469;-88
2022/08/09 10:51:59;;;;;;;3.23;2.40;;;30.90;60.40;;;;;;5064467;28;21395;-88
2022/08/09 10:54:26;;;;;;;2.63;2.03;;;30.90;60.80;;;;;;5067856;28;20488;-88
2022/08/09 10:57:12;;;;;;;3.07;2.43;;;31.10;60.20;;;;;;5071841;28;20461;-88
2022/08/09 10:59:40;;;;;;;3.57;2.40;;;31.20;59.50;;;;;;5071771;28;20886;-88
2022/08/09 11:02:16;;;;;;;3.67;2.50;;;31.20;59.40;;;;;;5071623;28;20453;-88
2022/08/09 11:05:04;;;;;;;3.50;2.60;;;31.40;61.10;;;;;;5064310;28;20453;-89
2022/08/09 11:07:32;;;;;;;3.47;2.63;;;31.50;60.10;;;;;;5070673;28;20977;-88
2022/08/09 11:09:59;;;;;;;2.90;2.30;;;31.60;59.80;;;;;;5071775;28;21077;-89
2022/08/09 11:12:28;;;;;;;3.20;2.40;;;31.80;60.30;;;;;;5072207;28;20901;-88
2022/08/09 11:14:56;;;;;;;2.50;2.23;;;32.00;59.20;;;;;;5071971;28;20469;-90
2022/08/09 11:17:57;;;;;;;4.00;2.23;;;32.00;59.20;;;;;;5071286;28;20503;-89
2022/08/09 11:20:46;;;;;;;2.30;2.17;;;32.20;59.70;;;;;;5071783;28;20477;-88
2022/08/09 11:23:15;;;;;;;2.87;2.30;;;32.30;59.60;;;;;;5063832;28;20459;-88
2022/08/09 11:25:45;;;;;;;3.33;2.73;;;32.40;59.40;;;;;;5072553;28;20488;-90
2022/08/09 11:28:40;;;;;;;3.87;2.40;;;32.60;59.00;;;;;;5071742;28;20518;-90
2022/08/09 11:31:39;;;;;;;3.43;2.40;;;32.60;57.90;;;;;;5071884;28;20481;-90
2022/08/09 11:34:10;;;;;;;3.00;2.37;;;32.80;59.30;;;;;;5072278;28;20465;-89
2022/08/09 11:36:46;;;;;;;3.73;2.40;;;33.10;58.30;;;;;;5074597;28;20457;-91
2022/08/09 11:39:15;;;;;;;2.60;2.37;;;33.40;58.50;;;;;;5074665;28;20455;-91
2022/08/09 11:41:49;;;;;;;4.30;2.90;;;33.60;57.60;;;;;;5075835;28;20477;-92
2022/08/09 11:44:20;;;;;;;3.43;2.63;;;33.60;57.30;;;;;;5075728;28;20466;-92
2022/08/09 11:47:13;;;;;;;2.93;2.30;;;33.70;56.80;;;;;;5075640;28;20836;-93
2022/08/09 11:50:08;;;;;;;2.30;2.13;;;33.70;57.50;;;;;;5072811;28;20496;-92
2022/08/09 11:53:17;;;;;;;3.20;2.37;;;33.80;56.80;;;;;;5075652;28;20962;-93
2022/08/09 11:55:47;;;;;;;2.50;2.17;;;33.90;56.30;;;;;;5075537;28;20456;-92
2022/08/09 11:58:58;;;;;;;3.00;2.30;;;34.00;55.10;;;;;;5075080;28;20528;-91
2022/08/09 12:01:37;;;;;;;3.30;2.60;;;34.10;55.10;;;;;;5075617;28;20508;-92
2022/08/09 12:04:12;;;;;;;2.83;2.50;;;34.30;55.50;;;;;;5078196;28;20472;-91
2022/08/09 12:06:49;;;;;;;2.50;2.13;;;34.30;54.90;;;;;;5078731;28;20575;-92
2022/08/09 12:09:27;;;;;;;2.77;2.17;;;34.40;54.00;;;;;;5079251;28;20464;-92
2022/08/09 12:12:15;;;;;;;2.77;2.33;;;34.50;53.80;;;;;;5079142;28;20464;-91
2022/08/09 12:14:42;;;;;;;2.70;2.17;;;34.70;52.80;;;;;;5078238;28;20997;-92
2022/08/09 12:17:13;;;;;;;2.60;2.10;;;34.90;53.00;;;;;;5077692;28;20453;-92
2022/08/09 12:19:40;;;;;;;2.43;2.07;;;35.10;53.00;;;;;;5079389;28;20453;-92
2022/08/09 12:22:19;;;;;;;2.37;2.20;;;35.30;52.80;;;;;;5079548;28;20575;-93
2022/08/09 12:24:46;;;;;;;2.30;2.00;;;35.40;52.70;;;;;;5080119;28;20448;-93
2022/08/09 12:27:21;;;;;;;3.07;2.40;;;35.50;52.90;;;;;;5079545;28;20480;-91
2022/08/09 12:29:56;;;;;;;2.33;2.17;;;35.60;52.50;;;;;;5091407;28;20510;-92
2022/08/09 12:32:27;;;;;;;3.43;2.27;;;35.60;51.40;;;;;;5085073;28;20456;-93
2022/08/09 12:34:59;;;;;;;2.53;1.90;;;35.60;51.20;;;;;;5079456;28;20465;-94
2022/08/09 12:37:32;;;;;;;2.20;2.07;;;35.90;51.10;;;;;;5074312;28;20455;-93
2022/08/09 12:40:04;;;;;;;2.83;2.20;;;36.00;51.20;;;;;;5077321;28;20476;-93
2022/08/09 12:42:33;;;;;;;2.53;2.00;;;36.20;50.60;;;;;;5080702;28;20942;-93
2022/08/09 12:45:00;;;;;;;3.10;2.13;;;36.20;50.90;;;;;;5084536;28;20543;-92
2022/08/09 12:47:28;;;;;;;2.60;2.20;;;36.10;49.50;;;;;;5084820;28;20452;-93
2022/08/09 12:52:44;;;;;;;2.27;2.00;;;36.10;49.40;;;;;;5075344;28;20937;-93
2022/08/09 12:55:23;;;;;;;3.47;2.33;;;36.30;50.10;;;;;;5073668;28;20962;-91
2022/08/09 12:57:52;;;;;;;2.30;2.10;;;36.50;49.80;;;;;;5073024;28;20456;-93
2022/08/09 13:00:21;;;;;;;2.83;2.07;;;36.60;48.80;;;;;;5073471;28;20500;-88
2022/08/09 13:02:52;;;;;;;5.10;2.40;;;36.40;49.60;;;;;;5075131;28;20464;-90
2022/08/09 13:05:20;;;;;;;3.07;2.40;;;36.00;49.40;;;;;;5073527;28;20461;-91
2022/08/09 13:08:13;;;;;;;2.27;2.07;;;36.10;49.30;;;;;;5072542;28;20461;-91
2022/08/09 13:10:52;;;;;;;2.40;2.07;;;36.50;49.50;;;;;;5073621;28;20579;-92
2022/08/09 13:13:31;;;;;;;3.13;2.33;;;36.80;48.90;;;;;;5074461;28;20457;-91